Time;durP1;ratioP1;P1;durP2;ratioP2;P2;SDS_P1;SDS_P2;PMS_P1;PMS_P2;Temp;Humidity;BMP_temperature;BMP_pressure;BME280_temperature;BME280_humidity;BME280_pressure;Samples;Min_cycle;Max_cycle;Signal;HPM_P1;HPM_P2
2023/06/15 00:01:19;;;;;;;5.03;3.50;;;;;;;12.24;78.69;97173.06;5038712;28;20037;-61
2023/06/15 00:03:45;;;;;;;6.03;3.22;;;;;;;12.21;78.46;97179.81;5031363;28;20563;-61
2023/06/15 00:06:12;;;;;;;5.03;3.53;;;;;;;12.32;77.95;97177.94;5038271;28;20058;-62
2023/06/15 00:08:39;;;;;;;6.03;3.90;;;;;;;12.45;77.75;97171.19;5033861;28;20060;-61
2023/06/15 00:11:05;;;;;;;7.10;3.67;;;;;;;12.33;78.28;97174.16;5032542;28;20041;-62
2023/06/15 00:13:32;;;;;;;7.03;3.75;;;;;;;12.46;77.71;97182.88;5033844;28;20033;-62
2023/06/15 00:15:58;;;;;;;5.93;3.90;;;;;;;12.20;78.82;97182.84;5033522;28;20038;-61
2023/06/15 00:18:26;;;;;;;5.35;3.63;;;;;;;12.33;78.80;97176.06;5031438;28;20083;-61
2023/06/15 00:20:55;;;;;;;7.53;3.83;;;;;;;12.28;79.25;97181.47;5033754;28;20083;-61
2023/06/15 00:23:26;;;;;;;8.10;4.20;;;;;;;12.43;78.08;97181.53;5039878;28;20261;-62
2023/06/15 00:25:53;;;;;;;5.50;3.70;;;;;;;12.49;78.31;97183.16;5035947;28;20684;-61
2023/06/15 00:28:38;;;;;;;6.90;4.40;;;;;;;12.46;78.04;97182.88;5035741;28;20496;-61
2023/06/15 00:31:05;;;;;;;7.80;4.13;;;;;;;12.36;79.19;97180.97;5038255;28;20443;-60
2023/06/15 00:33:32;;;;;;;10.02;4.93;;;;;;;12.44;78.13;97190.47;5030478;28;20103;-61
2023/06/15 00:35:59;;;;;;;7.38;4.22;;;;;;;12.19;80.32;97192.88;5029692;28;20452;-61
2023/06/15 00:38:26;;;;;;;7.15;3.95;;;;;;;12.33;79.30;97190.47;5032480;28;20569;-61
2023/06/15 00:40:52;;;;;;;5.53;3.65;;;;;;;12.26;79.45;97189.06;5042161;28;20060;-61
2023/06/15 00:43:19;;;;;;;5.30;3.67;;;;;;;12.14;80.19;97186.59;5039588;28;20041;-61
2023/06/15 00:45:45;;;;;;;6.43;4.03;;;;;;;12.03;80.24;97185.72;5034731;28;20152;-61
2023/06/15 00:48:14;;;;;;;6.05;3.75;;;;;;;11.97;80.63;97183.00;5035573;28;20041;-61
2023/06/15 00:50:42;;;;;;;7.47;3.83;;;;;;;12.07;80.37;97192.28;5027055;28;20037;-61
2023/06/15 00:53:10;;;;;;;6.40;3.70;;;;;;;12.11;80.46;97193.38;5035477;28;20049;-61
2023/06/15 00:55:38;;;;;;;6.32;4.20;;;;;;;12.05;80.64;97184.41;5039078;28;20459;-62
2023/06/15 00:58:05;;;;;;;6.40;3.92;;;;;;;11.83;82.06;97196.22;5027761;28;20144;-61
2023/06/15 01:00:32;;;;;;;7.03;4.25;;;;;;;11.86;81.44;97197.59;5029770;28;20041;-62
2023/06/15 01:03:12;;;;;;;5.45;4.07;;;;;;;11.86;81.61;97188.66;5030201;28;20312;-61
2023/06/15 01:05:39;;;;;;;6.22;4.07;;;;;;;11.68;82.19;97191.53;5035874;28;20452;-61
2023/06/15 01:08:08;;;;;;;6.03;3.70;;;;;;;11.71;82.26;97201.88;5043191;28;20106;-62
2023/06/15 01:10:36;;;;;;;6.03;3.83;;;;;;;11.72;82.61;97189.09;5037095;28;20582;-61
2023/06/15 01:13:04;;;;;;;6.18;3.60;;;;;;;11.79;82.20;97191.59;5038743;28;20064;-61
2023/06/15 01:15:32;;;;;;;5.97;4.03;;;;;;;11.74;82.22;97189.69;5033194;28;20504;-62
2023/06/15 01:17:59;;;;;;;7.82;5.05;;;;;;;11.76;81.74;97189.41;5034623;28;20068;-62
2023/06/15 01:20:42;;;;;;;8.60;4.55;;;;;;;11.69;81.93;97195.88;5028459;28;20156;-61
2023/06/15 01:23:28;;;;;;;7.03;4.17;;;;;;;11.55;82.97;97184.72;5038687;28;20628;-61
2023/06/15 01:26:07;;;;;;;8.70;3.90;;;;;;;11.52;83.40;97189.81;5029752;28;20302;-61
2023/06/15 01:28:40;;;;;;;7.40;4.28;;;;;;;11.51;83.45;97191.75;5026105;28;20049;-61
2023/06/15 01:31:09;;;;;;;8.00;4.40;;;;;;;11.45;84.01;97187.34;5025145;28;20124;-60
2023/06/15 01:33:50;;;;;;;8.27;4.28;;;;;;;11.49;84.03;97188.47;5037385;28;20124;-61
2023/06/15 01:36:18;;;;;;;6.68;4.05;;;;;;;11.41;84.06;97188.94;5024612;28;20069;-61
2023/06/15 01:38:49;;;;;;;6.00;3.90;;;;;;;11.42;84.13;97177.84;5027572;28;20103;-61
2023/06/15 01:41:20;;;;;;;7.38;4.30;;;;;;;11.47;84.93;97185.22;5026455;28;20091;-61
2023/06/15 01:43:47;;;;;;;9.32;3.60;;;;;;;11.25;85.14;97185.34;5025785;28;20037;-61
2023/06/15 01:46:15;;;;;;;6.57;4.22;;;;;;;11.22;85.59;97188.56;5034187;28;20053;-61
2023/06/15 01:48:41;;;;;;;7.28;4.20;;;;;;;11.04;86.25;97191.44;5026069;28;20033;-61
2023/06/15 01:51:08;;;;;;;6.22;4.20;;;;;;;10.91;87.59;97181.84;5027332;28;20045;-61
2023/06/15 01:53:36;;;;;;;6.53;4.53;;;;;;;10.88;87.26;97185.06;5032566;28;20037;-61
2023/06/15 01:56:03;;;;;;;4.88;3.80;;;;;;;10.92;87.03;97179.94;5031964;28;20054;-62
2023/06/15 01:58:29;;;;;;;5.15;3.80;;;;;;;11.02;87.66;97182.72;5032685;28;20049;-61
2023/06/15 02:00:56;;;;;;;6.30;4.63;;;;;;;11.13;86.19;97178.19;5037630;28;20778;-61
2023/06/15 02:03:23;;;;;;;6.65;4.35;;;;;;;11.05;86.51;97184.09;5035448;28;20507;-61
2023/06/15 02:05:50;;;;;;;11.48;4.40;;;;;;;11.02;86.82;97184.63;5029520;28;20095;-61
2023/06/15 02:08:16;;;;;;;6.68;4.40;;;;;;;10.98;87.17;97187.03;5031283;28;20427;-61
2023/06/15 02:10:43;;;;;;;;;;;;;;;11.14;86.34;97184.44;5038430;28;20038;-61
2023/06/15 02:13:13;;;;;;;6.55;4.38;;;;;;;11.15;86.73;97188.78;5030071;28;19920;-61
2023/06/15 02:15:40;;;;;;;6.82;4.78;;;;;;;11.26;86.04;97185.06;5035605;28;20519;-61
2023/06/15 02:18:12;;;;;;;5.65;4.22;;;;;;;11.35;85.13;97190.81;5032613;28;20428;-61
2023/06/15 02:20:43;;;;;;;6.43;4.20;;;;;;;11.32;85.07;97192.16;5027570;28;20037;-60
2023/06/15 02:23:13;;;;;;;7.27;4.57;;;;;;;11.14;86.33;97187.97;5033825;28;20566;-61
2023/06/15 02:25:40;;;;;;;7.10;4.68;;;;;;;11.15;88.04;97186.06;5031971;28;20083;-61
2023/06/15 02:28:07;;;;;;;6.32;4.30;;;;;;;11.25;86.01;97190.75;5033930;28;20492;-61
2023/06/15 02:30:35;;;;;;;5.72;4.25;;;;;;;11.24;86.40;97187.22;5031367;28;20065;-61
2023/06/15 02:33:04;;;;;;;7.70;4.18;;;;;;;11.20;86.83;97191.53;5034537;28;20463;-61
2023/06/15 02:35:31;;;;;;;5.72;4.20;;;;;;;11.17;87.27;97186.66;5033806;28;20136;-61
2023/06/15 02:37:58;;;;;;;7.45;3.95;;;;;;;11.11;86.89;97193.91;5024931;28;20047;-60
2023/06/15 02:40:25;;;;;;;6.68;4.60;;;;;;;11.00;87.45;97189.50;5026791;28;20051;-61
2023/06/15 02:42:53;;;;;;;7.97;4.07;;;;;;;10.79;88.99;97184.72;5023341;28;20084;-61
2023/06/15 02:45:19;;;;;;;5.68;4.18;;;;;;;10.89;88.12;97189.41;5028626;28;20034;-61
2023/06/15 02:47:47;;;;;;;7.47;4.20;;;;;;;10.85;88.82;97184.75;5024067;28;20049;-61
2023/06/15 02:50:13;;;;;;;7.97;4.80;;;;;;;10.83;88.81;97190.44;5025629;28;20053;-61
2023/06/15 02:52:48;;;;;;;7.13;4.38;;;;;;;10.76;89.05;97189.84;5031040;28;20404;-61
2023/06/15 02:55:15;;;;;;;6.28;4.03;;;;;;;10.72;89.13;97186.81;5026831;28;20045;-61
2023/06/15 02:57:43;;;;;;;8.80;4.57;;;;;;;10.82;89.03;97196.09;5026277;28;20094;-61
2023/06/15 03:00:17;;;;;;;5.53;4.30;;;;;;;10.90;88.86;97201.06;5023898;28;20306;-61
2023/06/15 03:02:57;;;;;;;7.13;4.28;;;;;;;10.93;87.60;97197.84;5023724;28;20516;-61
2023/06/15 03:05:26;;;;;;;5.82;4.45;;;;;;;10.78;88.55;97193.94;5022057;28;20033;-60
2023/06/15 03:07:56;;;;;;;6.40;4.28;;;;;;;10.70;89.91;97204.41;5036495;28;20495;-61
2023/06/15 03:10:54;;;;;;;6.60;4.30;;;;;;;10.60;90.07;97197.00;5017972;28;20412;-61
2023/06/15 03:13:21;;;;;;;6.75;4.20;;;;;;;10.61;90.19;97201.38;5032268;28;20135;-61
2023/06/15 03:15:48;;;;;;;8.05;4.90;;;;;;;10.63;89.88;97204.63;5027973;28;20029;-61
2023/06/15 03:18:14;;;;;;;9.30;4.78;;;;;;;10.56;89.17;97206.69;5029535;28;20041;-60
2023/06/15 03:20:43;;;;;;;5.10;4.00;;;;;;;10.52;90.23;97203.69;5023533;28;20516;-61
2023/06/15 03:23:11;;;;;;;7.47;4.10;;;;;;;10.45;90.35;97209.31;5027312;28;20140;-61
2023/06/15 03:25:38;;;;;;;8.05;4.82;;;;;;;10.43;90.33;97213.31;5026486;28;20432;-61
2023/06/15 03:28:05;;;;;;;6.70;4.53;;;;;;;10.19;92.15;97206.31;5028249;28;20041;-61
2023/06/15 03:30:35;;;;;;;7.10;4.43;;;;;;;10.34;91.19;97212.94;5033684;28;20135;-61
2023/06/15 03:33:02;;;;;;;8.20;5.43;;;;;;;10.31;91.45;97208.88;5027852;28;20038;-61
2023/06/15 03:35:29;;;;;;;6.50;4.18;;;;;;;10.25;91.86;97209.91;5028711;28;20048;-62
2023/06/15 03:37:56;;;;;;;8.40;5.35;;;;;;;10.14;91.91;97215.19;5029188;28;20033;-61
2023/06/15 03:40:22;;;;;;;7.55;5.28;;;;;;;10.31;92.06;97217.00;5031458;28;20141;-62
2023/06/15 03:42:49;;;;;;;6.47;4.55;;;;;;;10.48;91.07;97211.53;5031300;28;20095;-61
2023/06/15 03:45:17;;;;;;;7.15;4.65;;;;;;;10.68;89.30;97218.19;5024887;28;20723;-61
2023/06/15 03:47:46;;;;;;;8.77;4.68;;;;;;;10.81;88.10;97222.38;5028151;28;20059;-61
2023/06/15 03:50:13;;;;;;;7.25;4.63;;;;;;;10.64;89.29;97230.59;5030903;28;20057;-61
2023/06/15 03:52:40;;;;;;;9.70;5.13;;;;;;;10.61;89.87;97234.66;5031230;28;20521;-61
2023/06/15 03:55:07;;;;;;;6.82;4.63;;;;;;;10.78;89.51;97234.56;5032296;28;20033;-62
2023/06/15 03:57:33;;;;;;;9.75;4.80;;;;;;;10.84;89.04;97237.31;5032733;28;20048;-61
2023/06/15 04:00:00;;;;;;;10.95;4.68;;;;;;;11.03;87.46;97235.84;5031081;28;20534;-61
2023/06/15 04:02:27;;;;;;;5.90;4.13;;;;;;;11.22;86.09;97232.75;5032872;28;20056;-61
2023/06/15 04:04:56;;;;;;;6.85;4.97;;;;;;;11.40;85.27;97236.94;5038426;28;20033;-61
2023/06/15 04:07:24;;;;;;;9.75;4.40;;;;;;;11.50;84.51;97238.09;5025836;28;20135;-61
2023/06/15 04:09:51;;;;;;;11.75;4.50;;;;;;;11.44;84.56;97240.78;5035695;28;20119;-61
2023/06/15 04:12:17;;;;;;;6.85;4.68;;;;;;;11.45;84.81;97241.56;5030944;28;20571;-63
2023/06/15 04:14:44;;;;;;;7.07;5.05;;;;;;;11.36;85.19;97243.13;5021204;28;20045;-62
2023/06/15 04:17:15;;;;;;;8.45;4.97;;;;;;;11.36;85.99;97241.25;5028500;28;20041;-63
2023/06/15 04:19:41;;;;;;;8.30;4.70;;;;;;;11.48;85.49;97249.19;5031939;28;20121;-63
2023/06/15 04:22:08;;;;;;;7.85;4.63;;;;;;;11.53;84.68;97249.22;5034215;28;20307;-62
2023/06/15 04:24:36;;;;;;;6.55;4.38;;;;;;;11.60;84.99;97253.59;5039052;28;20047;-63
2023/06/15 04:27:04;;;;;;;9.32;5.30;;;;;;;11.63;85.27;97253.91;5025349;28;20072;-62
2023/06/15 04:29:31;;;;;;;8.88;4.90;;;;;;;11.78;83.92;97261.31;5030678;28;20049;-62
2023/06/15 04:31:58;;;;;;;7.95;5.03;;;;;;;11.91;83.28;97261.91;5035722;28;20310;-62
2023/06/15 04:34:29;;;;;;;5.82;4.32;;;;;;;11.97;83.82;97264.38;5030578;28;20497;-62
2023/06/15 04:36:56;;;;;;;10.70;4.97;;;;;;;12.19;82.48;97262.59;5035594;28;20131;-62
2023/06/15 04:39:25;;;;;;;6.32;4.63;;;;;;;12.39;81.46;97270.03;5028600;28;20438;-62
2023/06/15 04:41:57;;;;;;;6.07;4.53;;;;;;;12.60;81.08;97270.91;5032727;28;20060;-62
2023/06/15 04:44:24;;;;;;;8.27;4.82;;;;;;;12.73;80.92;97271.47;5028166;28;20045;-62
2023/06/15 04:46:51;;;;;;;6.05;4.30;;;;;;;12.85;81.05;97266.59;5036875;28;20037;-62
2023/06/15 04:49:18;;;;;;;9.18;4.07;;;;;;;13.12;79.68;97275.63;5036786;28;20044;-62
2023/06/15 04:51:44;;;;;;;6.60;4.68;;;;;;;13.19;79.39;97270.69;5021712;28;20037;-62
2023/06/15 04:54:11;;;;;;;7.47;4.60;;;;;;;13.42;79.67;97273.16;5025738;28;20037;-62
2023/06/15 04:56:39;;;;;;;7.60;4.72;;;;;;;13.63;79.05;97276.69;5026634;28;20060;-62
2023/06/15 04:59:07;;;;;;;9.57;4.28;;;;;;;13.79;77.17;97277.50;5033744;28;20126;-63
2023/06/15 05:01:34;;;;;;;6.97;4.85;;;;;;;13.93;77.94;97277.72;5037164;28;20220;-63
2023/06/15 05:04:01;;;;;;;5.68;3.92;;;;;;;14.11;74.75;97279.03;5039026;28;20079;-63
2023/06/15 05:06:27;;;;;;;6.20;3.83;;;;;;;14.35;72.11;97274.88;5038787;28;20040;-62
2023/06/15 05:08:54;;;;;;;6.03;3.75;;;;;;;14.60;70.11;97273.13;5033485;28;20099;-62
2023/06/15 05:11:22;;;;;;;6.80;3.78;;;;;;;14.75;69.99;97277.66;5026615;28;20033;-63
2023/06/15 05:13:48;;;;;;;7.07;3.85;;;;;;;14.90;69.15;97277.63;5028761;28;20512;-63
2023/06/15 05:16:15;;;;;;;5.85;3.92;;;;;;;15.00;68.80;97278.63;5028797;28;20424;-63
2023/06/15 05:18:45;;;;;;;6.40;4.00;;;;;;;15.07;68.29;97279.09;5034879;28;20150;-63
2023/06/15 05:21:12;;;;;;;6.93;4.10;;;;;;;15.14;68.08;97289.72;5038715;28;20411;-63
2023/06/15 05:23:39;;;;;;;7.25;4.28;;;;;;;15.17;67.28;97281.78;5035954;28;20436;-63
2023/06/15 05:26:07;;;;;;;7.47;4.25;;;;;;;15.19;67.66;97284.22;5034669;28;20152;-63
2023/06/15 05:28:53;;;;;;;5.60;3.70;;;;;;;15.14;67.76;97282.34;5026649;28;20116;-63
2023/06/15 05:31:20;;;;;;;5.00;3.65;;;;;;;15.26;67.51;97286.63;5025317;28;20408;-63
2023/06/15 05:33:47;;;;;;;8.35;4.07;;;;;;;15.35;67.07;97287.63;5033833;28;20087;-63
2023/06/15 05:36:13;;;;;;;6.20;4.07;;;;;;;15.43;66.71;97289.75;5026939;28;20116;-65
2023/06/15 05:39:01;;;;;;;7.57;3.83;;;;;;;15.51;66.74;97295.72;5030929;28;20049;-63
2023/06/15 05:41:28;;;;;;;7.35;4.10;;;;;;;15.53;65.94;97297.03;5028504;28;20049;-64
2023/06/15 05:43:55;;;;;;;7.15;4.47;;;;;;;15.54;64.88;97295.09;5035100;28;20483;-62
2023/06/15 05:46:22;;;;;;;5.45;4.03;;;;;;;15.57;64.83;97295.38;5025538;28;20563;-63
2023/06/15 05:48:48;;;;;;;7.40;4.13;;;;;;;15.60;64.73;97296.72;5035541;28;20072;-62
2023/06/15 05:51:15;;;;;;;8.10;4.22;;;;;;;15.61;64.38;97298.34;5028173;28;20049;-63
2023/06/15 05:53:42;;;;;;;7.47;4.15;;;;;;;15.64;64.37;97305.94;5035741;28;20076;-62
2023/06/15 05:56:09;;;;;;;6.22;3.90;;;;;;;15.73;63.74;97306.94;5030707;28;20034;-62
2023/06/15 05:58:37;;;;;;;6.60;3.60;;;;;;;15.81;62.81;97310.16;5035932;28;20075;-63
2023/06/15 06:01:04;;;;;;;6.20;4.13;;;;;;;15.85;62.43;97311.22;5037899;28;20324;-63
2023/06/15 06:03:31;;;;;;;6.85;4.20;;;;;;;15.99;62.42;97312.19;5025036;28;20052;-63
2023/06/15 06:06:01;;;;;;;7.18;4.70;;;;;;;16.06;62.59;97302.81;5025363;28;20034;-63
2023/06/15 06:08:28;;;;;;;7.22;3.85;;;;;;;16.16;63.02;97310.09;5030588;28;20048;-63
2023/06/15 06:10:54;;;;;;;8.32;3.83;;;;;;;16.21;62.15;97315.50;5033428;28;20068;-62
2023/06/15 06:13:32;;;;;;;6.03;4.03;;;;;;;16.21;61.28;97313.59;5029798;28;20124;-63
2023/06/15 06:15:58;;;;;;;6.20;3.88;;;;;;;16.27;61.93;97321.72;5036113;28;20064;-62
2023/06/15 06:18:25;;;;;;;7.15;3.75;;;;;;;16.30;61.38;97323.88;5036872;28;20255;-63
2023/06/15 06:20:52;;;;;;;6.28;3.97;;;;;;;16.24;61.25;97323.94;5038810;28;20036;-62
2023/06/15 06:23:18;;;;;;;8.32;3.90;;;;;;;16.38;60.95;97323.25;5041503;28;20052;-63
2023/06/15 06:25:45;;;;;;;5.63;3.67;;;;;;;16.46;60.58;97325.34;5026078;28;20099;-63
2023/06/15 06:28:12;;;;;;;6.85;4.38;;;;;;;16.58;60.63;97326.84;5026935;28;20045;-63
2023/06/15 06:30:39;;;;;;;6.68;3.78;;;;;;;16.59;60.68;97323.00;5036523;28;20043;-62
2023/06/15 06:33:05;;;;;;;6.63;3.90;;;;;;;16.63;60.55;97329.50;5039018;28;20047;-63
2023/06/15 06:35:32;;;;;;;6.38;3.80;;;;;;;16.74;59.94;97333.72;5035026;28;20034;-63
2023/06/15 06:37:58;;;;;;;6.30;3.92;;;;;;;16.77;60.31;97327.69;5033943;28;20120;-63
2023/06/15 06:40:28;;;;;;;8.20;4.25;;;;;;;16.84;60.23;97326.50;5036943;28;20045;-63
2023/06/15 06:42:55;;;;;;;7.32;4.32;;;;;;;16.89;59.96;97327.22;5034194;28;20045;-61
2023/06/15 06:45:21;;;;;;;8.13;3.50;;;;;;;16.94;60.32;97329.09;5025864;28;20459;-63
2023/06/15 06:47:48;;;;;;;7.85;4.22;;;;;;;17.00;59.48;97329.84;5029179;28;20069;-62
2023/06/15 06:50:15;;;;;;;12.35;4.78;;;;;;;17.03;60.08;97335.53;5040531;28;20342;-63
2023/06/15 06:52:44;;;;;;;7.07;3.92;;;;;;;17.11;60.16;97328.63;5043491;28;20044;-63
2023/06/15 06:55:11;;;;;;;5.57;4.00;;;;;;;17.29;60.36;97335.19;5043857;28;20127;-63
2023/06/15 06:57:37;;;;;;;7.40;4.97;;;;;;;17.30;58.87;97338.75;5032409;28;20042;-63
2023/06/15 07:00:06;;;;;;;6.82;3.75;;;;;;;17.35;58.55;97332.34;5033569;28;20037;-63
2023/06/15 07:02:32;;;;;;;5.80;4.07;;;;;;;17.37;59.19;97330.97;5026623;28;20033;-63
2023/06/15 07:04:59;;;;;;;7.72;4.13;;;;;;;17.39;58.93;97339.69;5028909;28;20370;-63
2023/06/15 07:07:26;;;;;;;9.38;4.13;;;;;;;17.36;58.79;97337.53;5029183;28;20042;-63
2023/06/15 07:09:53;;;;;;;5.75;4.00;;;;;;;17.37;59.11;97341.94;5039684;28;20034;-63
2023/06/15 07:12:20;;;;;;;8.18;4.63;;;;;;;17.32;59.25;97341.19;5029980;28;20044;-63
2023/06/15 07:14:47;;;;;;;8.38;3.95;;;;;;;17.45;58.56;97343.16;5041453;28;20041;-63
2023/06/15 07:17:13;;;;;;;6.95;4.05;;;;;;;17.66;58.40;97345.56;5031249;28;20045;-63
2023/06/15 07:19:40;;;;;;;8.18;4.20;;;;;;;17.71;57.88;97345.47;5027738;28;20041;-63
2023/06/15 07:22:07;;;;;;;5.63;4.18;;;;;;;17.71;58.19;97352.88;5029881;28;20044;-62
2023/06/15 07:24:35;;;;;;;6.63;4.53;;;;;;;17.74;58.58;97339.41;5032961;28;20049;-62
2023/06/15 07:27:02;;;;;;;6.15;4.05;;;;;;;17.92;57.39;97347.88;5030699;28;20083;-63
2023/06/15 07:29:28;;;;;;;10.40;4.40;;;;;;;18.12;56.79;97343.16;5033177;28;20041;-62
2023/06/15 07:31:55;;;;;;;5.10;3.95;;;;;;;18.15;56.33;97345.28;5035297;28;20037;-63
2023/06/15 07:34:23;;;;;;;6.20;4.60;;;;;;;18.03;56.25;97343.03;5027708;28;20305;-63
2023/06/15 07:36:50;;;;;;;6.65;4.00;;;;;;;17.95;57.37;97336.31;5028008;28;20048;-64
2023/06/15 07:39:16;;;;;;;6.95;3.97;;;;;;;18.08;56.06;97337.47;5032762;28;20103;-63
2023/06/15 07:41:43;;;;;;;8.40;4.28;;;;;;;18.02;56.12;97341.41;5032568;28;20080;-63
2023/06/15 07:44:12;;;;;;;10.85;4.18;;;;;;;18.03;56.33;97343.03;5035870;28;20044;-63
2023/06/15 07:46:39;;;;;;;8.50;3.65;;;;;;;18.24;55.53;97339.94;5030351;28;20040;-63
2023/06/15 07:49:06;;;;;;;6.75;3.90;;;;;;;18.35;55.40;97343.31;5034836;28;20045;-63
2023/06/15 07:51:36;;;;;;;8.15;4.78;;;;;;;18.41;54.59;97342.06;5026302;28;20065;-63
2023/06/15 07:54:13;;;;;;;5.28;3.83;;;;;;;18.55;54.67;97339.34;5033879;28;20038;-63
2023/06/15 07:56:40;;;;;;;10.85;4.15;;;;;;;18.72;54.98;97334.03;5033495;28;20436;-63
2023/06/15 07:59:06;;;;;;;6.03;3.63;;;;;;;18.94;54.35;97337.16;5029668;28;20489;-64
2023/06/15 08:01:33;;;;;;;11.18;4.93;;;;;;;18.82;54.09;97338.50;5024530;28;20056;-63
2023/06/15 08:04:00;;;;;;;6.03;3.70;;;;;;;18.89;54.74;97340.81;5027557;28;20046;-63
2023/06/15 08:06:26;;;;;;;8.88;4.60;;;;;;;19.01;52.50;97339.47;5034788;28;20041;-63
2023/06/15 08:08:53;;;;;;;6.15;4.50;;;;;;;19.14;52.54;97335.91;5039485;28;20047;-63
2023/06/15 08:11:20;;;;;;;10.20;4.00;;;;;;;19.32;52.44;97333.31;5034784;28;20061;-63
2023/06/15 08:13:46;;;;;;;8.20;4.60;;;;;;;19.48;51.79;97333.75;5025026;28;20285;-63
2023/06/15 08:16:13;;;;;;;6.78;3.88;;;;;;;19.50;51.36;97335.06;5036819;28;20117;-61
2023/06/15 08:18:39;;;;;;;14.07;4.00;;;;;;;19.57;51.80;97331.88;5037334;28;20132;-62
2023/06/15 08:21:06;;;;;;;5.78;3.83;;;;;;;19.62;52.03;97339.19;5041048;28;20040;-60
2023/06/15 08:23:33;;;;;;;6.65;4.30;;;;;;;19.67;51.18;97332.75;5038828;28;20503;-61
2023/06/15 08:25:59;;;;;;;5.57;3.97;;;;;;;19.71;51.12;97341.97;5040482;28;20037;-62
2023/06/15 08:28:26;;;;;;;7.75;3.90;;;;;;;19.68;51.13;97337.94;5035997;28;20144;-62
2023/06/15 08:30:53;;;;;;;5.85;3.25;;;;;;;19.86;51.63;97338.84;5037423;28;20041;-61
2023/06/15 08:33:19;;;;;;;6.60;4.00;;;;;;;19.98;49.91;97345.72;5032999;28;20095;-61
2023/06/15 08:35:46;;;;;;;6.55;3.92;;;;;;;20.02;50.99;97344.78;5026923;28;20213;-61
2023/06/15 08:38:13;;;;;;;5.68;3.83;;;;;;;20.18;50.96;97338.06;5028325;28;20469;-61
2023/06/15 08:40:39;;;;;;;5.13;4.03;;;;;;;20.26;50.57;97332.63;5036508;28;20339;-64
2023/06/15 08:43:06;;;;;;;9.85;4.10;;;;;;;20.27;49.37;97334.25;5027383;28;20481;-64
2023/06/15 08:45:39;;;;;;;5.85;3.80;;;;;;;20.30;49.72;97334.75;5039843;28;20060;-63
2023/06/15 08:48:08;;;;;;;8.57;4.72;;;;;;;20.44;49.08;97334.63;5038680;28;20403;-64
2023/06/15 08:50:38;;;;;;;7.63;4.03;;;;;;;20.54;48.90;97334.34;5039114;28;20404;-65
2023/06/15 08:53:06;;;;;;;9.20;4.20;;;;;;;20.70;48.58;97337.47;5030468;28;20515;-64
2023/06/15 08:55:35;;;;;;;7.22;3.78;;;;;;;20.64;48.47;97336.78;5036071;28;20408;-64
2023/06/15 08:58:01;;;;;;;9.13;3.83;;;;;;;20.73;48.63;97333.25;5033338;28;20603;-64
2023/06/15 09:00:28;;;;;;;7.40;3.80;;;;;;;20.76;47.94;97335.38;5035599;28;20045;-64
2023/06/15 09:02:57;;;;;;;5.47;3.80;;;;;;;20.81;46.98;97343.47;5038796;28;20041;-64
2023/06/15 09:05:26;;;;;;;7.00;4.22;;;;;;;20.61;47.43;97331.94;5038296;28;20110;-64
2023/06/15 09:07:53;;;;;;;7.53;3.67;;;;;;;20.85;47.21;97341.69;5027272;28;20041;-64
2023/06/15 09:10:22;;;;;;;8.32;3.95;;;;;;;20.94;47.47;97333.50;5038057;28;20051;-62
2023/06/15 09:12:52;;;;;;;7.15;3.67;;;;;;;21.12;47.46;97328.03;5027399;28;20055;-61
2023/06/15 09:15:24;;;;;;;10.80;4.00;;;;;;;21.12;46.65;97333.53;5041337;28;20049;-63
2023/06/15 09:17:59;;;;;;;6.45;3.92;;;;;;;21.12;46.10;97325.25;5035847;28;20033;-62
2023/06/15 09:20:30;;;;;;;10.85;3.85;;;;;;;21.23;45.21;97336.78;5035003;28;20048;-62
2023/06/15 09:22:59;;;;;;;8.00;3.75;;;;;;;21.22;44.94;97335.16;5027247;28;20514;-62
2023/06/15 09:25:28;;;;;;;8.27;3.45;;;;;;;21.19;45.48;97336.59;5030692;28;20068;-63
2023/06/15 09:27:57;;;;;;;5.13;3.60;;;;;;;21.28;44.97;97340.19;5026493;28;20038;-62
2023/06/15 09:30:33;;;;;;;5.82;3.63;;;;;;;21.22;44.23;97341.44;5034582;28;20049;-62
2023/06/15 09:33:13;;;;;;;4.93;3.33;;;;;;;21.33;44.71;97330.13;5033601;28;20045;-62
2023/06/15 09:36:00;;;;;;;8.13;3.78;;;;;;;21.45;44.94;97333.06;5036499;28;20041;-63
2023/06/15 09:38:31;;;;;;;5.82;3.25;;;;;;;21.60;44.20;97325.41;5029605;28;20051;-62
2023/06/15 09:41:02;;;;;;;;;;;;;;;21.48;43.10;97326.88;5040660;28;20530;-62
2023/06/15 09:43:34;;;;;;;7.75;3.40;;;;;;;21.67;44.24;97332.03;5039707;28;19925;-62
2023/06/15 09:46:04;;;;;;;6.78;3.70;;;;;;;21.80;42.73;97337.72;5029584;28;20051;-63
2023/06/15 09:48:31;;;;;;;7.20;3.60;;;;;;;21.80;42.47;97346.00;5032831;28;20530;-63
2023/06/15 09:51:03;;;;;;;5.03;3.28;;;;;;;21.90;42.44;97345.66;5038283;28;20041;-63
2023/06/15 09:53:31;;;;;;;7.13;3.10;;;;;;;21.83;41.99;97334.31;5033085;28;20041;-63
2023/06/15 09:55:58;;;;;;;5.68;3.10;;;;;;;21.68;40.67;97338.38;5034005;28;20524;-61
2023/06/15 09:58:25;;;;;;;5.38;3.60;;;;;;;21.55;42.45;97334.63;5032014;28;20068;-61
2023/06/15 10:00:57;;;;;;;6.63;3.67;;;;;;;21.65;42.85;97333.50;5041938;28;20285;-63
2023/06/15 10:03:28;;;;;;;8.23;3.60;;;;;;;21.69;42.19;97335.28;5028221;28;20037;-60
2023/06/15 10:06:00;;;;;;;5.53;3.25;;;;;;;21.89;41.78;97326.69;5029036;28;20504;-62
2023/06/15 10:08:30;;;;;;;6.55;3.33;;;;;;;22.15;41.58;97339.59;5027023;28;20084;-63
2023/06/15 10:10:58;;;;;;;8.10;3.63;;;;;;;22.30;40.39;97341.00;5033244;28;20120;-62
2023/06/15 10:13:33;;;;;;;5.07;3.35;;;;;;;22.28;39.66;97340.50;5036885;28;20217;-65
2023/06/15 10:16:02;;;;;;;5.40;3.00;;;;;;;22.33;39.48;97343.06;5036238;28;20041;-65
2023/06/15 10:18:29;;;;;;;6.72;3.45;;;;;;;22.42;38.27;97340.28;5035202;28;20058;-63
2023/06/15 10:20:59;;;;;;;7.43;3.30;;;;;;;22.16;38.58;97332.94;5035716;28;20448;-62
2023/06/15 10:23:28;;;;;;;4.55;3.00;;;;;;;22.25;39.21;97332.91;5026276;28;20037;-62
2023/06/15 10:26:11;;;;;;;8.18;3.03;;;;;;;22.46;39.30;97331.03;5029159;28;20304;-62
2023/06/15 10:28:45;;;;;;;5.38;3.10;;;;;;;22.85;38.56;97335.72;5029715;28;20298;-62
2023/06/15 10:31:35;;;;;;;4.80;3.10;;;;;;;22.83;36.93;97343.50;5033802;28;20504;-63
2023/06/15 10:34:08;;;;;;;7.57;3.35;;;;;;;22.74;36.72;97333.34;5036883;28;20216;-63
2023/06/15 10:37:12;;;;;;;5.50;2.65;;;;;;;22.90;37.05;97326.41;5033854;28;20055;-62
2023/06/15 10:39:44;;;;;;;5.65;2.70;;;;;;;23.19;36.85;97331.09;5027032;28;20045;-62
2023/06/15 10:42:14;;;;;;;5.25;2.97;;;;;;;23.23;35.68;97332.06;5036158;28;20049;-62
2023/06/15 10:44:41;;;;;;;4.18;2.80;;;;;;;23.12;35.31;97333.59;5037565;28;20050;-62
2023/06/15 10:47:09;;;;;;;8.43;3.22;;;;;;;23.30;36.79;97333.44;5031315;28;20489;-62
2023/06/15 10:49:36;;;;;;;6.60;3.72;;;;;;;23.46;35.83;97331.72;5027920;28;20396;-61
2023/06/15 10:52:06;;;;;;;5.32;3.30;;;;;;;23.27;36.45;97332.19;5040094;28;20041;-62
2023/06/15 10:54:35;;;;;;;4.55;2.67;;;;;;;23.37;36.98;97325.47;5030800;28;20118;-63
2023/06/15 10:57:02;;;;;;;4.70;2.90;;;;;;;23.02;36.44;97333.97;5032882;28;20045;-62
2023/06/15 10:59:47;;;;;;;5.95;3.20;;;;;;;23.16;37.01;97331.78;5031707;28;20052;-63
2023/06/15 11:02:31;;;;;;;4.45;3.08;;;;;;;23.34;37.00;97335.25;5029703;28;20099;-63
2023/06/15 11:05:08;;;;;;;5.50;3.00;;;;;;;23.26;35.73;97333.31;5029037;28;20120;-63
2023/06/15 11:07:37;;;;;;;5.47;2.85;;;;;;;23.15;34.68;97335.69;5031460;28;20515;-63
2023/06/15 11:10:10;;;;;;;5.57;3.03;;;;;;;23.01;34.90;97333.19;5033434;28;20045;-62
2023/06/15 11:12:38;;;;;;;3.72;2.58;;;;;;;23.20;34.95;97323.63;5033200;28;20037;-63
2023/06/15 11:15:08;;;;;;;4.28;2.78;;;;;;;23.55;34.25;97323.34;5037104;28;20047;-63
2023/06/15 11:17:58;;;;;;;4.65;2.40;;;;;;;23.90;33.52;97324.97;5030772;28;20100;-63
2023/06/15 11:20:59;;;;;;;3.83;2.50;;;;;;;24.03;32.42;97323.84;5027420;28;20041;-63
2023/06/15 11:23:33;;;;;;;;;;;;;;;24.10;31.84;97319.72;5033595;28;20462;-63
2023/06/15 11:26:01;;;;;;;7.15;3.05;;;;;;;24.11;32.95;97318.59;5035589;28;20276;-63
2023/06/15 11:28:33;;;;;;;4.93;2.78;;;;;;;24.21;32.78;97323.66;5033763;28;20161;-63
2023/06/15 11:31:06;;;;;;;8.07;3.60;;;;;;;23.89;34.05;97324.13;5034115;28;20038;-62
2023/06/15 11:33:40;;;;;;;10.57;3.22;;;;;;;23.78;33.89;97321.00;5032392;28;20499;-63
2023/06/15 11:36:08;;;;;;;5.20;2.80;;;;;;;23.72;34.07;97324.31;5041501;28;20083;-62
2023/06/15 11:38:36;;;;;;;9.50;3.25;;;;;;;23.54;34.12;97318.97;5031132;28;20041;-64
2023/06/15 11:41:04;;;;;;;5.68;3.10;;;;;;;23.55;33.81;97319.78;5033200;28;20038;-65
2023/06/15 11:43:35;;;;;;;4.80;2.67;;;;;;;23.93;32.95;97317.94;5027975;28;20045;-64